Francisco A. Berra, Argentina
Current Conditions -  °F | °C
As of 5:00 AM on Saturday 29 Nov 2014 (Local Time) from SAEZ Reporting Station
Clear Clear  
Wind Chill: 21°   Ceiling: Unl
Heat Index: 21°   Visibility: 6mi
Dew Point: 12°   Wind: 14mph
Humidity: 56%   Direction: 50°NE
Pressure: 29.8"   Gusts: NA
Location:  35.41°S, 58.82°W
Report Text: SAEZ 290800Z 05012KT CAVOK 21/12 Q1009
Loading
Personal Weather Stations






























Interactive Weather Map New forecast layout! Learn more

10-Day Weather Forecast

Advertisements
Track Severe Weather on mobile